sensor_id;sensor_type;location;lat;lon;timestamp;P1;durP1;ratioP1;P2;durP2;ratioP2
15398;SDS011;7797;51.428;6.756;2023-11-22T00:01:06;9.17;;;7.13;;
15398;SDS011;7797;51.428;6.756;2023-11-22T00:03:33;9.67;;;7.43;;
15398;SDS011;7797;51.428;6.756;2023-11-22T00:06:00;8.10;;;6.90;;
15398;SDS011;7797;51.428;6.756;2023-11-22T00:08:28;10.73;;;7.40;;
15398;SDS011;7797;51.428;6.756;2023-11-22T00:10:56;12.13;;;7.80;;
15398;SDS011;7797;51.428;6.756;2023-11-22T00:13:23;8.03;;;7.13;;
15398;SDS011;7797;51.428;6.756;2023-11-22T00:15:50;7.80;;;7.00;;
15398;SDS011;7797;51.428;6.756;2023-11-22T00:18:17;8.90;;;7.50;;
15398;SDS011;7797;51.428;6.756;2023-11-22T00:20:44;10.47;;;7.57;;
15398;SDS011;7797;51.428;6.756;2023-11-22T00:23:10;7.90;;;7.10;;
15398;SDS011;7797;51.428;6.756;2023-11-22T00:25:37;8.17;;;7.33;;
15398;SDS011;7797;51.428;6.756;2023-11-22T00:28:04;8.10;;;7.23;;
15398;SDS011;7797;51.428;6.756;2023-11-22T00:30:33;7.57;;;6.77;;
15398;SDS011;7797;51.428;6.756;2023-11-22T00:33:00;7.97;;;6.90;;
15398;SDS011;7797;51.428;6.756;2023-11-22T00:35:26;9.13;;;7.40;;
15398;SDS011;7797;51.428;6.756;2023-11-22T00:37:53;8.07;;;6.53;;
15398;SDS011;7797;51.428;6.756;2023-11-22T00:40:20;9.67;;;7.43;;
15398;SDS011;7797;51.428;6.756;2023-11-22T00:42:47;8.03;;;7.23;;
15398;SDS011;7797;51.428;6.756;2023-11-22T00:45:14;8.07;;;6.90;;
15398;SDS011;7797;51.428;6.756;2023-11-22T00:47:41;7.27;;;6.57;;
15398;SDS011;7797;51.428;6.756;2023-11-22T00:50:09;7.30;;;6.47;;
15398;SDS011;7797;51.428;6.756;2023-11-22T00:52:36;9.63;;;7.73;;
15398;SDS011;7797;51.428;6.756;2023-11-22T00:55:03;8.70;;;6.93;;
15398;SDS011;7797;51.428;6.756;2023-11-22T00:57:31;8.83;;;7.57;;
15398;SDS011;7797;51.428;6.756;2023-11-22T00:59:58;8.83;;;7.07;;
15398;SDS011;7797;51.428;6.756;2023-11-22T01:02:25;8.40;;;7.33;;
15398;SDS011;7797;51.428;6.756;2023-11-22T01:04:52;7.83;;;6.60;;
15398;SDS011;7797;51.428;6.756;2023-11-22T01:07:19;8.00;;;7.20;;
15398;SDS011;7797;51.428;6.756;2023-11-22T01:09:46;9.27;;;6.00;;
15398;SDS011;7797;51.428;6.756;2023-11-22T01:12:12;8.77;;;6.50;;
15398;SDS011;7797;51.428;6.756;2023-11-22T01:14:40;8.60;;;6.93;;
15398;SDS011;7797;51.428;6.756;2023-11-22T01:17:07;8.10;;;6.93;;
15398;SDS011;7797;51.428;6.756;2023-11-22T01:19:35;6.97;;;6.07;;
15398;SDS011;7797;51.428;6.756;2023-11-22T01:22:02;7.77;;;7.00;;
15398;SDS011;7797;51.428;6.756;2023-11-22T01:24:29;7.63;;;6.77;;
15398;SDS011;7797;51.428;6.756;2023-11-22T01:26:56;7.63;;;6.47;;
15398;SDS011;7797;51.428;6.756;2023-11-22T01:29:22;7.13;;;6.43;;
15398;SDS011;7797;51.428;6.756;2023-11-22T01:31:50;7.47;;;6.47;;
15398;SDS011;7797;51.428;6.756;2023-11-22T01:34:16;8.47;;;6.40;;
15398;SDS011;7797;51.428;6.756;2023-11-22T01:36:43;7.03;;;6.33;;
15398;SDS011;7797;51.428;6.756;2023-11-22T01:39:11;7.10;;;6.40;;
15398;SDS011;7797;51.428;6.756;2023-11-22T01:41:40;7.13;;;6.43;;
15398;SDS011;7797;51.428;6.756;2023-11-22T01:44:08;7.30;;;6.50;;
15398;SDS011;7797;51.428;6.756;2023-11-22T01:46:35;7.00;;;5.97;;
15398;SDS011;7797;51.428;6.756;2023-11-22T01:49:02;6.50;;;5.90;;
15398;SDS011;7797;51.428;6.756;2023-11-22T01:51:29;7.23;;;6.53;;
15398;SDS011;7797;51.428;6.756;2023-11-22T01:53:57;7.33;;;6.20;;
15398;SDS011;7797;51.428;6.756;2023-11-22T01:56:25;6.93;;;6.23;;
15398;SDS011;7797;51.428;6.756;2023-11-22T01:58:55;7.47;;;6.27;;
15398;SDS011;7797;51.428;6.756;2023-11-22T02:01:24;8.10;;;6.67;;
15398;SDS011;7797;51.428;6.756;2023-11-22T02:03:55;6.57;;;5.97;;
15398;SDS011;7797;51.428;6.756;2023-11-22T02:06:22;6.27;;;5.67;;
15398;SDS011;7797;51.428;6.756;2023-11-22T02:08:49;6.63;;;5.90;;
15398;SDS011;7797;51.428;6.756;2023-11-22T02:11:17;6.20;;;5.27;;
15398;SDS011;7797;51.428;6.756;2023-11-22T02:13:48;7.60;;;6.57;;
15398;SDS011;7797;51.428;6.756;2023-11-22T02:16:18;7.17;;;6.00;;
15398;SDS011;7797;51.428;6.756;2023-11-22T02:18:46;7.13;;;6.20;;
15398;SDS011;7797;51.428;6.756;2023-11-22T02:21:15;7.47;;;6.23;;
15398;SDS011;7797;51.428;6.756;2023-11-22T02:23:43;7.03;;;6.33;;
15398;SDS011;7797;51.428;6.756;2023-11-22T02:26:09;9.50;;;6.43;;
15398;SDS011;7797;51.428;6.756;2023-11-22T02:28:36;6.93;;;5.87;;
15398;SDS011;7797;51.428;6.756;2023-11-22T02:31:04;8.33;;;5.90;;
15398;SDS011;7797;51.428;6.756;2023-11-22T02:33:31;6.93;;;6.13;;
15398;SDS011;7797;51.428;6.756;2023-11-22T02:35:57;6.93;;;5.87;;
15398;SDS011;7797;51.428;6.756;2023-11-22T02:38:25;6.50;;;5.37;;
15398;SDS011;7797;51.428;6.756;2023-11-22T02:40:52;7.33;;;5.93;;
15398;SDS011;7797;51.428;6.756;2023-11-22T02:43:19;7.67;;;6.50;;
15398;SDS011;7797;51.428;6.756;2023-11-22T02:45:47;7.63;;;6.03;;
15398;SDS011;7797;51.428;6.756;2023-11-22T02:48:14;7.60;;;6.77;;
15398;SDS011;7797;51.428;6.756;2023-11-22T02:50:41;7.07;;;6.33;;
15398;SDS011;7797;51.428;6.756;2023-11-22T02:53:10;8.70;;;6.77;;
15398;SDS011;7797;51.428;6.756;2023-11-22T02:55:37;7.57;;;6.50;;
15398;SDS011;7797;51.428;6.756;2023-11-22T02:58:04;8.23;;;6.43;;
15398;SDS011;7797;51.428;6.756;2023-11-22T03:00:30;8.17;;;6.83;;
15398;SDS011;7797;51.428;6.756;2023-11-22T03:02:57;9.43;;;6.90;;
15398;SDS011;7797;51.428;6.756;2023-11-22T03:05:24;10.40;;;7.07;;
15398;SDS011;7797;51.428;6.756;2023-11-22T03:07:51;9.10;;;6.87;;
15398;SDS011;7797;51.428;6.756;2023-11-22T03:10:18;9.57;;;7.17;;
15398;SDS011;7797;51.428;6.756;2023-11-22T03:12:45;8.43;;;7.03;;
15398;SDS011;7797;51.428;6.756;2023-11-22T03:15:11;10.83;;;7.90;;
15398;SDS011;7797;51.428;6.756;2023-11-22T03:17:38;10.07;;;7.67;;
15398;SDS011;7797;51.428;6.756;2023-11-22T03:20:06;9.57;;;8.13;;
15398;SDS011;7797;51.428;6.756;2023-11-22T03:22:38;12.03;;;8.97;;
15398;SDS011;7797;51.428;6.756;2023-11-22T03:25:05;12.23;;;8.40;;
15398;SDS011;7797;51.428;6.756;2023-11-22T03:27:37;10.17;;;8.20;;
15398;SDS011;7797;51.428;6.756;2023-11-22T03:30:04;9.57;;;7.63;;
15398;SDS011;7797;51.428;6.756;2023-11-22T03:32:34;9.73;;;7.87;;
15398;SDS011;7797;51.428;6.756;2023-11-22T03:35:04;9.47;;;7.70;;
15398;SDS011;7797;51.428;6.756;2023-11-22T03:37:33;12.17;;;8.67;;
15398;SDS011;7797;51.428;6.756;2023-11-22T03:40:00;10.17;;;8.00;;
15398;SDS011;7797;51.428;6.756;2023-11-22T03:42:27;9.13;;;7.77;;
15398;SDS011;7797;51.428;6.756;2023-11-22T03:44:54;9.53;;;7.83;;
15398;SDS011;7797;51.428;6.756;2023-11-22T03:47:21;10.33;;;8.00;;
15398;SDS011;7797;51.428;6.756;2023-11-22T03:49:48;10.03;;;7.90;;
15398;SDS011;7797;51.428;6.756;2023-11-22T03:52:15;10.50;;;8.10;;
15398;SDS011;7797;51.428;6.756;2023-11-22T03:54:42;9.77;;;8.00;;
15398;SDS011;7797;51.428;6.756;2023-11-22T03:57:09;8.03;;;7.07;;
15398;SDS011;7797;51.428;6.756;2023-11-22T03:59:35;9.20;;;7.47;;
15398;SDS011;7797;51.428;6.756;2023-11-22T04:02:02;8.50;;;7.23;;
15398;SDS011;7797;51.428;6.756;2023-11-22T04:04:30;9.63;;;7.40;;
15398;SDS011;7797;51.428;6.756;2023-11-22T04:06:57;9.10;;;7.33;;
15398;SDS011;7797;51.428;6.756;2023-11-22T04:09:24;8.73;;;7.07;;
15398;SDS011;7797;51.428;6.756;2023-11-22T04:11:51;7.50;;;6.70;;
15398;SDS011;7797;51.428;6.756;2023-11-22T04:14:17;9.43;;;7.60;;
15398;SDS011;7797;51.428;6.756;2023-11-22T04:16:47;10.00;;;7.57;;
15398;SDS011;7797;51.428;6.756;2023-11-22T04:19:14;10.03;;;7.63;;
15398;SDS011;7797;51.428;6.756;2023-11-22T04:21:41;8.63;;;7.50;;
15398;SDS011;7797;51.428;6.756;2023-11-22T04:24:08;9.43;;;7.13;;
15398;SDS011;7797;51.428;6.756;2023-11-22T04:26:35;8.03;;;6.83;;
15398;SDS011;7797;51.428;6.756;2023-11-22T04:29:03;9.30;;;6.93;;
15398;SDS011;7797;51.428;6.756;2023-11-22T04:31:30;9.63;;;7.87;;
15398;SDS011;7797;51.428;6.756;2023-11-22T04:33:57;8.60;;;7.63;;
15398;SDS011;7797;51.428;6.756;2023-11-22T04:36:25;11.50;;;8.10;;
15398;SDS011;7797;51.428;6.756;2023-11-22T04:38:52;11.27;;;7.83;;
15398;SDS011;7797;51.428;6.756;2023-11-22T04:41:19;10.57;;;7.10;;
15398;SDS011;7797;51.428;6.756;2023-11-22T04:43:46;8.00;;;7.10;;
15398;SDS011;7797;51.428;6.756;2023-11-22T04:46:13;10.80;;;7.50;;
15398;SDS011;7797;51.428;6.756;2023-11-22T04:48:40;9.63;;;7.07;;
15398;SDS011;7797;51.428;6.756;2023-11-22T04:51:11;10.80;;;7.33;;
15398;SDS011;7797;51.428;6.756;2023-11-22T04:53:38;10.10;;;7.73;;
15398;SDS011;7797;51.428;6.756;2023-11-22T04:56:05;10.30;;;7.13;;
15398;SDS011;7797;51.428;6.756;2023-11-22T04:58:33;9.23;;;7.13;;
15398;SDS011;7797;51.428;6.756;2023-11-22T05:01:00;9.17;;;6.87;;
15398;SDS011;7797;51.428;6.756;2023-11-22T05:03:28;9.77;;;7.60;;
15398;SDS011;7797;51.428;6.756;2023-11-22T05:05:55;9.23;;;7.33;;
15398;SDS011;7797;51.428;6.756;2023-11-22T05:08:22;9.40;;;7.03;;
15398;SDS011;7797;51.428;6.756;2023-11-22T05:10:49;7.50;;;6.27;;
15398;SDS011;7797;51.428;6.756;2023-11-22T05:13:18;8.33;;;6.50;;
15398;SDS011;7797;51.428;6.756;2023-11-22T05:15:44;7.90;;;6.20;;
15398;SDS011;7797;51.428;6.756;2023-11-22T05:18:11;9.00;;;7.70;;
15398;SDS011;7797;51.428;6.756;2023-11-22T05:20:38;9.20;;;6.90;;
15398;SDS011;7797;51.428;6.756;2023-11-22T05:23:05;7.53;;;6.40;;
15398;SDS011;7797;51.428;6.756;2023-11-22T05:25:32;7.77;;;6.30;;
15398;SDS011;7797;51.428;6.756;2023-11-22T05:27:59;7.87;;;6.40;;
15398;SDS011;7797;51.428;6.756;2023-11-22T05:30:25;8.63;;;5.97;;
15398;SDS011;7797;51.428;6.756;2023-11-22T05:32:52;7.67;;;6.10;;
15398;SDS011;7797;51.428;6.756;2023-11-22T05:35:19;7.23;;;6.37;;
15398;SDS011;7797;51.428;6.756;2023-11-22T05:37:47;6.37;;;5.40;;
15398;SDS011;7797;51.428;6.756;2023-11-22T05:40:14;7.37;;;6.20;;
15398;SDS011;7797;51.428;6.756;2023-11-22T05:42:42;8.07;;;6.10;;
15398;SDS011;7797;51.428;6.756;2023-11-22T05:45:09;7.27;;;5.80;;
15398;SDS011;7797;51.428;6.756;2023-11-22T05:47:36;6.93;;;6.23;;
15398;SDS011;7797;51.428;6.756;2023-11-22T05:50:04;8.10;;;5.70;;
15398;SDS011;7797;51.428;6.756;2023-11-22T05:52:32;8.00;;;6.00;;
15398;SDS011;7797;51.428;6.756;2023-11-22T05:54:59;10.20;;;6.27;;
15398;SDS011;7797;51.428;6.756;2023-11-22T05:57:30;7.80;;;5.47;;
15398;SDS011;7797;51.428;6.756;2023-11-22T05:59:57;6.97;;;5.67;;
15398;SDS011;7797;51.428;6.756;2023-11-22T06:02:29;6.47;;;5.87;;
15398;SDS011;7797;51.428;6.756;2023-11-22T06:04:56;6.67;;;5.87;;
15398;SDS011;7797;51.428;6.756;2023-11-22T06:07:23;6.43;;;5.80;;
15398;SDS011;7797;51.428;6.756;2023-11-22T06:09:49;5.80;;;4.73;;
15398;SDS011;7797;51.428;6.756;2023-11-22T06:12:16;5.47;;;4.97;;
15398;SDS011;7797;51.428;6.756;2023-11-22T06:14:43;7.40;;;6.27;;
15398;SDS011;7797;51.428;6.756;2023-11-22T06:17:10;7.27;;;5.80;;
15398;SDS011;7797;51.428;6.756;2023-11-22T06:19:37;5.90;;;5.23;;
15398;SDS011;7797;51.428;6.756;2023-11-22T06:22:03;7.07;;;5.67;;
15398;SDS011;7797;51.428;6.756;2023-11-22T06:24:30;9.13;;;5.43;;
15398;SDS011;7797;51.428;6.756;2023-11-22T06:26:57;6.43;;;5.53;;
15398;SDS011;7797;51.428;6.756;2023-11-22T06:29:29;7.17;;;5.77;;
15398;SDS011;7797;51.428;6.756;2023-11-22T06:31:56;7.30;;;5.80;;
15398;SDS011;7797;51.428;6.756;2023-11-22T06:34:23;8.27;;;5.33;;
15398;SDS011;7797;51.428;6.756;2023-11-22T06:36:50;7.67;;;5.70;;
15398;SDS011;7797;51.428;6.756;2023-11-22T06:39:17;7.83;;;5.83;;
15398;SDS011;7797;51.428;6.756;2023-11-22T06:41:44;12.30;;;8.73;;
15398;SDS011;7797;51.428;6.756;2023-11-22T06:44:10;8.93;;;6.50;;
15398;SDS011;7797;51.428;6.756;2023-11-22T06:46:37;8.30;;;6.70;;
15398;SDS011;7797;51.428;6.756;2023-11-22T06:49:04;7.80;;;5.90;;
15398;SDS011;7797;51.428;6.756;2023-11-22T06:51:32;6.87;;;5.67;;
15398;SDS011;7797;51.428;6.756;2023-11-22T06:53:58;7.60;;;6.20;;
15398;SDS011;7797;51.428;6.756;2023-11-22T06:56:27;6.73;;;5.87;;
15398;SDS011;7797;51.428;6.756;2023-11-22T06:58:54;6.60;;;5.53;;
15398;SDS011;7797;51.428;6.756;2023-11-22T07:01:24;7.00;;;5.47;;
15398;SDS011;7797;51.428;6.756;2023-11-22T07:03:54;6.73;;;6.00;;
15398;SDS011;7797;51.428;6.756;2023-11-22T07:06:21;7.00;;;6.00;;
15398;SDS011;7797;51.428;6.756;2023-11-22T07:08:52;6.97;;;5.67;;
15398;SDS011;7797;51.428;6.756;2023-11-22T07:11:22;7.50;;;6.13;;
15398;SDS011;7797;51.428;6.756;2023-11-22T07:13:50;7.93;;;5.83;;
15398;SDS011;7797;51.428;6.756;2023-11-22T07:16:18;7.70;;;5.97;;
15398;SDS011;7797;51.428;6.756;2023-11-22T07:18:45;7.60;;;6.17;;
15398;SDS011;7797;51.428;6.756;2023-11-22T07:21:29;7.00;;;5.87;;
15398;SDS011;7797;51.428;6.756;2023-11-22T07:23:59;7.77;;;5.73;;
15398;SDS011;7797;51.428;6.756;2023-11-22T07:26:26;7.80;;;5.80;;
15398;SDS011;7797;51.428;6.756;2023-11-22T07:28:53;7.53;;;6.03;;
15398;SDS011;7797;51.428;6.756;2023-11-22T07:31:20;6.73;;;5.67;;
15398;SDS011;7797;51.428;6.756;2023-11-22T07:33:49;6.87;;;5.57;;
15398;SDS011;7797;51.428;6.756;2023-11-22T07:36:16;7.77;;;5.43;;
15398;SDS011;7797;51.428;6.756;2023-11-22T07:38:43;7.77;;;6.17;;
15398;SDS011;7797;51.428;6.756;2023-11-22T07:41:15;6.60;;;5.43;;
15398;SDS011;7797;51.428;6.756;2023-11-22T07:43:42;7.67;;;5.87;;
15398;SDS011;7797;51.428;6.756;2023-11-22T07:46:11;9.90;;;5.90;;
15398;SDS011;7797;51.428;6.756;2023-11-22T07:48:43;9.27;;;6.00;;
15398;SDS011;7797;51.428;6.756;2023-11-22T07:51:13;11.47;;;6.23;;
15398;SDS011;7797;51.428;6.756;2023-11-22T07:53:43;7.03;;;5.50;;
15398;SDS011;7797;51.428;6.756;2023-11-22T07:56:10;7.07;;;5.33;;
15398;SDS011;7797;51.428;6.756;2023-11-22T07:58:39;6.87;;;5.60;;
15398;SDS011;7797;51.428;6.756;2023-11-22T08:01:06;5.57;;;5.07;;
15398;SDS011;7797;51.428;6.756;2023-11-22T08:03:40;6.80;;;5.20;;
15398;SDS011;7797;51.428;6.756;2023-11-22T08:06:13;7.97;;;5.33;;
15398;SDS011;7797;51.428;6.756;2023-11-22T08:08:40;7.57;;;5.60;;
15398;SDS011;7797;51.428;6.756;2023-11-22T08:11:07;5.53;;;5.03;;
15398;SDS011;7797;51.428;6.756;2023-11-22T08:13:41;7.30;;;5.57;;
15398;SDS011;7797;51.428;6.756;2023-11-22T08:16:09;7.13;;;5.03;;
15398;SDS011;7797;51.428;6.756;2023-11-22T08:18:36;9.10;;;6.10;;
15398;SDS011;7797;51.428;6.756;2023-11-22T08:21:03;7.77;;;5.43;;
15398;SDS011;7797;51.428;6.756;2023-11-22T08:23:30;11.07;;;5.53;;
15398;SDS011;7797;51.428;6.756;2023-11-22T08:25:59;6.87;;;5.27;;
15398;SDS011;7797;51.428;6.756;2023-11-22T08:28:26;5.80;;;5.20;;
15398;SDS011;7797;51.428;6.756;2023-11-22T08:30:57;7.33;;;5.40;;
15398;SDS011;7797;51.428;6.756;2023-11-22T08:33:24;7.63;;;5.53;;
15398;SDS011;7797;51.428;6.756;2023-11-22T08:35:51;6.30;;;5.43;;
15398;SDS011;7797;51.428;6.756;2023-11-22T08:38:24;6.40;;;5.20;;
15398;SDS011;7797;51.428;6.756;2023-11-22T08:40:54;8.13;;;5.73;;
15398;SDS011;7797;51.428;6.756;2023-11-22T08:43:23;7.60;;;5.30;;
15398;SDS011;7797;51.428;6.756;2023-11-22T08:45:52;6.73;;;5.00;;
15398;SDS011;7797;51.428;6.756;2023-11-22T08:48:34;6.87;;;5.83;;
15398;SDS011;7797;51.428;6.756;2023-11-22T08:51:05;7.10;;;5.17;;
15398;SDS011;7797;51.428;6.756;2023-11-22T08:53:34;5.07;;;4.57;;
15398;SDS011;7797;51.428;6.756;2023-11-22T08:56:01;5.93;;;4.77;;
15398;SDS011;7797;51.428;6.756;2023-11-22T08:58:31;8.27;;;5.20;;
15398;SDS011;7797;51.428;6.756;2023-11-22T09:00:59;6.00;;;4.87;;
15398;SDS011;7797;51.428;6.756;2023-11-22T09:03:25;6.37;;;5.47;;
15398;SDS011;7797;51.428;6.756;2023-11-22T09:05:53;6.70;;;4.90;;
15398;SDS011;7797;51.428;6.756;2023-11-22T09:08:21;7.50;;;4.90;;
15398;SDS011;7797;51.428;6.756;2023-11-22T09:10:53;6.50;;;5.37;;
15398;SDS011;7797;51.428;6.756;2023-11-22T09:13:21;5.93;;;4.90;;
15398;SDS011;7797;51.428;6.756;2023-11-22T09:15:49;6.83;;;4.93;;
15398;SDS011;7797;51.428;6.756;2023-11-22T09:18:16;6.27;;;4.70;;
15398;SDS011;7797;51.428;6.756;2023-11-22T09:20:43;10.93;;;5.10;;
15398;SDS011;7797;51.428;6.756;2023-11-22T09:23:11;5.63;;;4.40;;
15398;SDS011;7797;51.428;6.756;2023-11-22T09:25:38;8.33;;;4.47;;
15398;SDS011;7797;51.428;6.756;2023-11-22T09:28:05;5.20;;;4.67;;
15398;SDS011;7797;51.428;6.756;2023-11-22T09:30:34;5.70;;;4.33;;
15398;SDS011;7797;51.428;6.756;2023-11-22T09:33:13;6.13;;;4.83;;
15398;SDS011;7797;51.428;6.756;2023-11-22T09:35:45;6.43;;;4.50;;
15398;SDS011;7797;51.428;6.756;2023-11-22T09:38:14;9.60;;;4.70;;
15398;SDS011;7797;51.428;6.756;2023-11-22T09:43:18;4.60;;;4.10;;
15398;SDS011;7797;51.428;6.756;2023-11-22T09:45:47;5.47;;;4.60;;
15398;SDS011;7797;51.428;6.756;2023-11-22T09:48:22;8.43;;;4.50;;
15398;SDS011;7797;51.428;6.756;2023-11-22T09:54:03;6.43;;;4.13;;
15398;SDS011;7797;51.428;6.756;2023-11-22T09:56:34;4.97;;;4.27;;
15398;SDS011;7797;51.428;6.756;2023-11-22T09:59:04;5.73;;;4.17;;
15398;SDS011;7797;51.428;6.756;2023-11-22T10:01:33;7.23;;;4.20;;
15398;SDS011;7797;51.428;6.756;2023-11-22T10:04:03;6.10;;;4.63;;
15398;SDS011;7797;51.428;6.756;2023-11-22T10:06:39;5.27;;;4.50;;
15398;SDS011;7797;51.428;6.756;2023-11-22T10:09:07;9.20;;;4.83;;
15398;SDS011;7797;51.428;6.756;2023-11-22T10:11:35;5.17;;;4.67;;
15398;SDS011;7797;51.428;6.756;2023-11-22T10:14:06;7.83;;;5.17;;
15398;SDS011;7797;51.428;6.756;2023-11-22T10:16:33;6.40;;;4.40;;
15398;SDS011;7797;51.428;6.756;2023-11-22T10:19:00;6.83;;;4.13;;
15398;SDS011;7797;51.428;6.756;2023-11-22T10:21:28;4.83;;;4.30;;
15398;SDS011;7797;51.428;6.756;2023-11-22T10:24:04;8.97;;;3.90;;
15398;SDS011;7797;51.428;6.756;2023-11-22T10:26:36;4.73;;;3.43;;
15398;SDS011;7797;51.428;6.756;2023-11-22T10:29:03;6.53;;;3.93;;
15398;SDS011;7797;51.428;6.756;2023-11-22T10:31:30;5.23;;;4.47;;
15398;SDS011;7797;51.428;6.756;2023-11-22T10:33:58;4.87;;;3.53;;
15398;SDS011;7797;51.428;6.756;2023-11-22T10:36:25;6.60;;;3.40;;
15398;SDS011;7797;51.428;6.756;2023-11-22T10:38:53;3.90;;;3.53;;
15398;SDS011;7797;51.428;6.756;2023-11-22T10:41:21;4.80;;;3.60;;
15398;SDS011;7797;51.428;6.756;2023-11-22T10:43:51;4.73;;;3.47;;
15398;SDS011;7797;51.428;6.756;2023-11-22T10:46:19;4.40;;;3.43;;
15398;SDS011;7797;51.428;6.756;2023-11-22T10:48:48;5.40;;;4.10;;
15398;SDS011;7797;51.428;6.756;2023-11-22T10:51:18;5.10;;;4.57;;
15398;SDS011;7797;51.428;6.756;2023-11-22T10:53:48;6.30;;;4.60;;
15398;SDS011;7797;51.428;6.756;2023-11-22T10:56:17;5.10;;;4.30;;
15398;SDS011;7797;51.428;6.756;2023-11-22T10:58:48;6.10;;;4.20;;
15398;SDS011;7797;51.428;6.756;2023-11-22T11:01:16;8.23;;;5.20;;
15398;SDS011;7797;51.428;6.756;2023-11-22T11:04:01;7.70;;;4.40;;
15398;SDS011;7797;51.428;6.756;2023-11-22T11:06:34;5.77;;;4.70;;
15398;SDS011;7797;51.428;6.756;2023-11-22T11:09:03;6.10;;;4.67;;
15398;SDS011;7797;51.428;6.756;2023-11-22T11:11:41;6.13;;;4.50;;
15398;SDS011;7797;51.428;6.756;2023-11-22T11:14:08;7.63;;;4.20;;
15398;SDS011;7797;51.428;6.756;2023-11-22T11:16:38;4.97;;;3.90;;
15398;SDS011;7797;51.428;6.756;2023-11-22T11:19:08;4.30;;;3.57;;
15398;SDS011;7797;51.428;6.756;2023-11-22T11:21:36;3.63;;;3.33;;
15398;SDS011;7797;51.428;6.756;2023-11-22T11:24:03;3.77;;;2.80;;
15398;SDS011;7797;51.428;6.756;2023-11-22T11:26:33;2.57;;;2.20;;
15398;SDS011;7797;51.428;6.756;2023-11-22T11:29:04;2.63;;;2.40;;
15398;SDS011;7797;51.428;6.756;2023-11-22T11:31:33;2.40;;;2.20;;
15398;SDS011;7797;51.428;6.756;2023-11-22T11:34:06;8.60;;;5.63;;
15398;SDS011;7797;51.428;6.756;2023-11-22T11:36:33;4.60;;;3.97;;
15398;SDS011;7797;51.428;6.756;2023-11-22T11:39:01;5.43;;;4.20;;
15398;SDS011;7797;51.428;6.756;2023-11-22T11:41:33;3.97;;;3.53;;
15398;SDS011;7797;51.428;6.756;2023-11-22T11:44:03;5.33;;;4.10;;
15398;SDS011;7797;51.428;6.756;2023-11-22T11:46:34;6.43;;;4.57;;
15398;SDS011;7797;51.428;6.756;2023-11-22T11:49:01;10.63;;;7.17;;
15398;SDS011;7797;51.428;6.756;2023-11-22T11:51:34;3.70;;;3.20;;
15398;SDS011;7797;51.428;6.756;2023-11-22T11:54:01;5.60;;;4.40;;
15398;SDS011;7797;51.428;6.756;2023-11-22T11:56:28;4.27;;;3.77;;
15398;SDS011;7797;51.428;6.756;2023-11-22T11:58:56;5.30;;;4.27;;
15398;SDS011;7797;51.428;6.756;2023-11-22T12:01:29;3.70;;;3.33;;
15398;SDS011;7797;51.428;6.756;2023-11-22T12:04:03;5.27;;;3.20;;
15398;SDS011;7797;51.428;6.756;2023-11-22T12:06:30;3.80;;;3.20;;
15398;SDS011;7797;51.428;6.756;2023-11-22T12:09:03;3.43;;;3.10;;
15398;SDS011;7797;51.428;6.756;2023-11-22T12:11:30;4.47;;;2.93;;
15398;SDS011;7797;51.428;6.756;2023-11-22T12:13:57;4.63;;;2.83;;
15398;SDS011;7797;51.428;6.756;2023-11-22T12:16:25;3.23;;;3.00;;
15398;SDS011;7797;51.428;6.756;2023-11-22T12:18:54;4.23;;;2.87;;
15398;SDS011;7797;51.428;6.756;2023-11-22T12:21:21;2.87;;;2.67;;
15398;SDS011;7797;51.428;6.756;2023-11-22T12:23:49;2.70;;;2.50;;
15398;SDS011;7797;51.428;6.756;2023-11-22T12:26:20;3.23;;;2.80;;
15398;SDS011;7797;51.428;6.756;2023-11-22T12:28:48;2.87;;;2.47;;
15398;SDS011;7797;51.428;6.756;2023-11-22T12:31:29;2.80;;;2.50;;
15398;SDS011;7797;51.428;6.756;2023-11-22T12:34:02;2.70;;;2.37;;
15398;SDS011;7797;51.428;6.756;2023-11-22T12:36:30;2.60;;;2.40;;
15398;SDS011;7797;51.428;6.756;2023-11-22T12:38:57;2.30;;;2.10;;
15398;SDS011;7797;51.428;6.756;2023-11-22T12:41:28;2.23;;;1.80;;
15398;SDS011;7797;51.428;6.756;2023-11-22T12:44:06;1.53;;;1.43;;
15398;SDS011;7797;51.428;6.756;2023-11-22T12:46:50;1.90;;;1.80;;
15398;SDS011;7797;51.428;6.756;2023-11-22T12:49:24;3.63;;;2.13;;
15398;SDS011;7797;51.428;6.756;2023-11-22T12:51:52;3.53;;;1.93;;
15398;SDS011;7797;51.428;6.756;2023-11-22T12:54:20;2.10;;;2.00;;
15398;SDS011;7797;51.428;6.756;2023-11-22T12:56:51;1.87;;;1.77;;
15398;SDS011;7797;51.428;6.756;2023-11-22T12:59:25;1.57;;;1.47;;
15398;SDS011;7797;51.428;6.756;2023-11-22T13:01:57;1.10;;;1.10;;
15398;SDS011;7797;51.428;6.756;2023-11-22T13:04:27;1.37;;;1.27;;
15398;SDS011;7797;51.428;6.756;2023-11-22T13:06:57;1.30;;;1.20;;
15398;SDS011;7797;51.428;6.756;2023-11-22T13:09:27;1.30;;;1.20;;
15398;SDS011;7797;51.428;6.756;2023-11-22T13:11:54;2.90;;;1.73;;
15398;SDS011;7797;51.428;6.756;2023-11-22T13:14:20;2.03;;;1.83;;
15398;SDS011;7797;51.428;6.756;2023-11-22T13:16:47;2.03;;;1.93;;
15398;SDS011;7797;51.428;6.756;2023-11-22T13:19:15;3.20;;;1.60;;
15398;SDS011;7797;51.428;6.756;2023-11-22T13:21:41;2.07;;;1.90;;
15398;SDS011;7797;51.428;6.756;2023-11-22T13:24:08;2.30;;;2.10;;
15398;SDS011;7797;51.428;6.756;2023-11-22T13:26:36;2.87;;;2.20;;
15398;SDS011;7797;51.428;6.756;2023-11-22T13:29:03;2.10;;;2.00;;
15398;SDS011;7797;51.428;6.756;2023-11-22T13:31:30;3.43;;;1.60;;
15398;SDS011;7797;51.428;6.756;2023-11-22T13:33:56;2.50;;;1.70;;
15398;SDS011;7797;51.428;6.756;2023-11-22T13:36:23;3.17;;;1.60;;
15398;SDS011;7797;51.428;6.756;2023-11-22T13:38:50;2.10;;;1.87;;
15398;SDS011;7797;51.428;6.756;2023-11-22T13:41:17;1.57;;;1.47;;
15398;SDS011;7797;51.428;6.756;2023-11-22T13:43:44;1.97;;;1.87;;
15398;SDS011;7797;51.428;6.756;2023-11-22T13:46:13;2.40;;;2.20;;
15398;SDS011;7797;51.428;6.756;2023-11-22T13:48:41;2.43;;;2.23;;
15398;SDS011;7797;51.428;6.756;2023-11-22T13:51:19;2.20;;;2.10;;
15398;SDS011;7797;51.428;6.756;2023-11-22T13:53:45;2.10;;;1.90;;
15398;SDS011;7797;51.428;6.756;2023-11-22T13:56:19;1.87;;;1.57;;
15398;SDS011;7797;51.428;6.756;2023-11-22T13:58:46;1.87;;;1.60;;
15398;SDS011;7797;51.428;6.756;2023-11-22T14:01:13;2.00;;;1.90;;
15398;SDS011;7797;51.428;6.756;2023-11-22T14:03:53;2.13;;;1.73;;
15398;SDS011;7797;51.428;6.756;2023-11-22T14:06:21;3.43;;;2.80;;
15398;SDS011;7797;51.428;6.756;2023-11-22T14:08:56;3.07;;;2.50;;
15398;SDS011;7797;51.428;6.756;2023-11-22T14:11:23;3.53;;;2.90;;
15398;SDS011;7797;51.428;6.756;2023-11-22T14:13:50;2.70;;;2.50;;
15398;SDS011;7797;51.428;6.756;2023-11-22T14:16:17;2.80;;;2.50;;
15398;SDS011;7797;51.428;6.756;2023-11-22T14:18:44;3.00;;;2.70;;
15398;SDS011;7797;51.428;6.756;2023-11-22T14:21:11;4.37;;;2.60;;
15398;SDS011;7797;51.428;6.756;2023-11-22T14:23:38;4.30;;;2.57;;
15398;SDS011;7797;51.428;6.756;2023-11-22T14:26:05;3.87;;;2.63;;
15398;SDS011;7797;51.428;6.756;2023-11-22T14:28:33;2.70;;;2.50;;
15398;SDS011;7797;51.428;6.756;2023-11-22T14:31:00;2.67;;;2.47;;
15398;SDS011;7797;51.428;6.756;2023-11-22T14:33:26;4.00;;;2.97;;
15398;SDS011;7797;51.428;6.756;2023-11-22T14:35:58;2.80;;;2.53;;
15398;SDS011;7797;51.428;6.756;2023-11-22T14:38:30;3.20;;;2.77;;
15398;SDS011;7797;51.428;6.756;2023-11-22T14:40:58;2.90;;;2.70;;
15398;SDS011;7797;51.428;6.756;2023-11-22T14:43:24;3.30;;;2.77;;
15398;SDS011;7797;51.428;6.756;2023-11-22T14:45:51;3.40;;;2.60;;
15398;SDS011;7797;51.428;6.756;2023-11-22T14:48:19;3.97;;;2.60;;
15398;SDS011;7797;51.428;6.756;2023-11-22T14:50:46;3.47;;;2.87;;
15398;SDS011;7797;51.428;6.756;2023-11-22T14:53:13;3.13;;;2.87;;
15398;SDS011;7797;51.428;6.756;2023-11-22T14:55:40;3.00;;;2.80;;
15398;SDS011;7797;51.428;6.756;2023-11-22T14:58:09;5.57;;;3.30;;
15398;SDS011;7797;51.428;6.756;2023-11-22T15:00:36;3.53;;;3.13;;
15398;SDS011;7797;51.428;6.756;2023-11-22T15:03:08;6.47;;;3.60;;
15398;SDS011;7797;51.428;6.756;2023-11-22T15:05:36;5.43;;;3.70;;
15398;SDS011;7797;51.428;6.756;2023-11-22T15:08:02;4.73;;;3.90;;
15398;SDS011;7797;51.428;6.756;2023-11-22T15:10:29;5.47;;;4.23;;
15398;SDS011;7797;51.428;6.756;2023-11-22T15:12:56;5.57;;;4.23;;